Time;durP1;ratioP1;P1;durP2;ratioP2;P2;SDS_P1;SDS_P2;PMS_P1;PMS_P2;Temp;Humidity;BMP_temperature;BMP_pressure;BME280_temperature;BME280_humidity;BME280_pressure;Samples;Min_cycle;Max_cycle;Signal;HPM_P1;HPM_P2
2022/12/14 00:00:44;;;;;;;;;;;26.10;73.70;;;;;;5081634;28;19925;-73
2022/12/14 00:03:11;;;;;;;;;;;25.80;69.90;;;;;;5071590;28;19933;-73
2022/12/14 00:05:37;;;;;;;;;;;25.10;70.20;;;;;;5075096;28;20561;-74
2022/12/14 00:08:04;;;;;;;;;;;24.60;71.50;;;;;;5087218;28;19956;-75
2022/12/14 00:10:31;;;;;;;;;;;24.60;71.90;;;;;;5070521;28;19926;-76
2022/12/14 00:12:58;;;;;;;;;;;24.70;73.00;;;;;;5075412;28;20320;-77
2022/12/14 00:15:24;;;;;;;;;;;24.60;72.00;;;;;;5072325;28;19916;-70
2022/12/14 00:17:51;;;;;;;;;;;24.60;72.80;;;;;;5071573;28;19920;-76
2022/12/14 00:20:18;;;;;;;;;;;25.00;72.90;;;;;;5070786;28;19955;-78
2022/12/14 00:22:45;;;;;;;;;;;25.50;69.30;;;;;;5059049;28;19918;-76
2022/12/14 00:25:12;;;;;;;;;;;25.40;68.30;;;;;;5072587;28;19924;-78
2022/12/14 00:27:44;;;;;;;;;;;25.40;67.20;;;;;;5069216;28;19956;-73
2022/12/14 00:30:11;;;;;;;;;;;25.20;67.10;;;;;;5070711;28;19919;-74
2022/12/14 00:32:38;;;;;;;;;;;25.40;69.60;;;;;;5074648;28;19919;-72
2022/12/14 00:35:05;;;;;;;;;;;25.50;63.80;;;;;;5074704;28;19916;-70
2022/12/14 00:37:32;;;;;;;;;;;25.50;64.10;;;;;;5074805;28;20341;-75
2022/12/14 00:39:58;;;;;;;;;;;25.00;63.70;;;;;;5074020;28;20034;-75
2022/12/14 00:42:25;;;;;;;;;;;25.00;64.60;;;;;;5074305;28;19920;-72
2022/12/14 00:44:52;;;;;;;;;;;25.50;65.70;;;;;;5071810;28;19920;-72
2022/12/14 00:47:18;;;;;;;;;;;25.80;63.00;;;;;;5071562;28;20182;-73
2022/12/14 00:49:47;;;;;;;;;;;25.80;61.60;;;;;;5080433;28;19916;-73
2022/12/14 00:52:13;;;;;;;;;;;25.50;62.60;;;;;;5080531;28;19924;-76
2022/12/14 00:54:41;;;;;;;;;;;25.70;65.20;;;;;;5075496;28;19998;-76
2022/12/14 00:57:08;;;;;;;;;;;25.90;65.20;;;;;;5073506;28;19916;-74
2022/12/14 00:59:34;;;;;;;;;;;26.30;60.70;;;;;;5078113;28;19913;-75
2022/12/14 01:02:01;;;;;;;;;;;26.60;61.40;;;;;;5083349;28;19916;-75
2022/12/14 01:04:28;;;;;;;;;;;26.60;60.40;;;;;;5077211;28;20480;-72
2022/12/14 01:06:55;;;;;;;;;;;26.40;61.00;;;;;;5085464;28;20010;-73
2022/12/14 01:09:23;;;;;;;;;;;26.70;62.00;;;;;;5094194;28;19920;-70
2022/12/14 01:11:50;;;;;;;;;;;27.30;63.70;;;;;;5086115;28;19927;-73
2022/12/14 01:14:18;;;;;;;;;;;27.70;60.30;;;;;;5076908;28;19916;-72
2022/12/14 01:16:45;;;;;;;;;;;27.70;61.40;;;;;;5075608;28;19952;-72
2022/12/14 01:19:13;;;;;;;;;;;27.10;60.00;;;;;;5076001;28;19917;-73
2022/12/14 01:21:40;;;;;;;;;;;26.50;60.20;;;;;;5072111;28;19916;-75
2022/12/14 01:24:07;;;;;;;;;;;26.10;61.90;;;;;;5077040;28;20358;-78
2022/12/14 01:26:38;;;;;;;;;;;25.70;60.50;;;;;;5075839;28;19920;-76
2022/12/14 01:29:05;;;;;;;;;;;25.80;60.80;;;;;;5076265;28;19957;-76
2022/12/14 01:31:33;;;;;;;;;;;25.60;58.00;;;;;;5088409;28;19995;-76
2022/12/14 01:34:00;;;;;;;;;;;25.30;58.40;;;;;;5081016;28;19995;-84
2022/12/14 01:36:28;;;;;;;;;;;25.50;61.60;;;;;;5083525;28;19928;-75
2022/12/14 01:38:56;;;;;;;;;;;26.10;60.80;;;;;;5085054;28;19927;-77
2022/12/14 01:41:25;;;;;;;;;;;26.50;57.60;;;;;;5080139;28;19916;-75
2022/12/14 01:43:56;;;;;;;;;;;26.70;57.40;;;;;;5088279;28;20291;-77
2022/12/14 01:46:33;;;;;;;;;;;26.70;58.10;;;;;;5090167;28;19923;-75
2022/12/14 01:49:04;;;;;;;;;;;26.80;55.90;;;;;;5084369;28;19913;-76
2022/12/14 01:51:34;;;;;;;;;;;26.70;57.20;;;;;;5087902;28;19916;-74
2022/12/14 01:54:03;;;;;;;;;;;26.80;56.80;;;;;;5094625;28;19908;-74
2022/12/14 01:56:31;;;;;;;;;;;27.10;59.00;;;;;;5092050;28;19909;-74
2022/12/14 01:59:00;;;;;;;;;;;27.50;57.90;;;;;;5086827;28;20289;-75
2022/12/14 02:01:27;;;;;;;;;;;27.70;55.90;;;;;;5085684;28;19912;-74
2022/12/14 02:03:53;;;;;;;;;;;27.70;55.80;;;;;;5089275;28;20324;-76
2022/12/14 02:06:29;;;;;;;;;;;27.60;55.80;;;;;;5080125;28;19934;-75
2022/12/14 02:08:56;;;;;;;;;;;27.20;54.80;;;;;;5076536;28;19996;-78
2022/12/14 02:11:32;;;;;;;;;;;27.00;59.60;;;;;;5086570;28;19916;-76
2022/12/14 02:13:59;;;;;;;;;;;27.30;60.10;;;;;;5074515;28;19913;-74
2022/12/14 02:16:26;;;;;;;;;;;27.70;57.70;;;;;;5074681;28;20426;-76
2022/12/14 02:18:53;;;;;;;;;;;28.20;59.40;;;;;;5082271;28;19915;-76
2022/12/14 02:21:24;;;;;;;;;;;28.30;55.50;;;;;;5087814;28;20029;-75
2022/12/14 02:23:54;;;;;;;;;;;28.20;55.90;;;;;;5081264;28;19919;-77
2022/12/14 02:26:20;;;;;;;;;;;28.00;54.00;;;;;;5075019;28;19924;-77
2022/12/14 02:28:50;;;;;;;;;;;27.40;55.40;;;;;;5086581;28;19974;-79
2022/12/14 02:31:35;;;;;;;;;;;27.40;54.60;;;;;;5076982;28;19920;-77
2022/12/14 02:34:07;;;;;;;;;;;27.60;56.00;;;;;;5083298;28;19916;-74
2022/12/14 02:36:42;;;;;;;;;;;28.10;55.60;;;;;;5078529;28;20015;-75
2022/12/14 02:39:14;;;;;;;;;;;28.30;55.10;;;;;;5074311;28;19920;-77
2022/12/14 02:41:54;;;;;;;;;;;28.60;55.40;;;;;;5078094;28;19957;-75
2022/12/14 02:44:20;;;;;;;;;;;28.30;55.10;;;;;;5072429;28;19974;-78
2022/12/14 02:47:01;;;;;;;;;;;28.40;57.00;;;;;;5075509;28;19927;-73
2022/12/14 02:49:28;;;;;;;;;;;28.70;55.10;;;;;;5076750;28;19952;-73
2022/12/14 02:51:57;;;;;;;;;;;29.00;57.50;;;;;;5076371;28;20007;-77
2022/12/14 02:54:42;;;;;;;;;;;29.20;56.60;;;;;;5079379;28;21736;-83
2022/12/14 02:57:29;;;;;;;;;;;29.60;55.30;;;;;;5075228;28;20000;-77
2022/12/14 02:59:59;;;;;;;;;;;29.90;56.10;;;;;;5071913;28;19913;-78
2022/12/14 03:02:27;;;;;;;;;;;30.20;55.40;;;;;;5076034;28;19912;-75
2022/12/14 03:04:54;;;;;;;;;;;30.30;53.50;;;;;;5074779;28;19920;-80
2022/12/14 03:07:29;;;;;;;;;;;30.20;52.20;;;;;;5078228;28;20011;-75
2022/12/14 03:09:57;;;;;;;;;;;29.60;49.00;;;;;;5075003;28;19913;-72
2022/12/14 03:12:23;;;;;;;;;;;29.20;51.80;;;;;;5078266;28;19959;-73
2022/12/14 03:14:51;;;;;;;;;;;29.10;52.60;;;;;;5087219;28;19973;-76
2022/12/14 03:17:19;;;;;;;;;;;29.10;53.60;;;;;;5083710;28;20332;-74
2022/12/14 03:20:07;;;;;;;;;;;29.20;52.30;;;;;;5088985;28;19912;-79
2022/12/14 03:22:38;;;;;;;;;;;29.30;52.90;;;;;;5077603;28;19916;-78
2022/12/14 03:25:08;;;;;;;;;;;29.20;53.50;;;;;;5074202;28;20004;-73
2022/12/14 03:27:43;;;;;;;;;;;29.40;52.30;;;;;;5076771;28;19928;-76
2022/12/14 03:30:11;;;;;;;;;;;29.40;52.50;;;;;;5076105;28;20010;-76
2022/12/14 03:32:48;;;;;;;;;;;29.40;53.30;;;;;;5072978;28;19912;-75
2022/12/14 03:35:22;;;;;;;;;;;29.50;52.60;;;;;;5070051;28;19912;-77
2022/12/14 03:38:10;;;;;;;;;;;29.60;52.50;;;;;;5074882;28;20438;-78
2022/12/14 03:40:45;;;;;;;;;;;29.70;52.00;;;;;;5072417;28;20227;-75
2022/12/14 03:43:18;;;;;;;;;;;29.70;52.40;;;;;;5077660;28;20356;-76
2022/12/14 03:45:44;;;;;;;;;;;29.60;53.20;;;;;;5054648;28;19932;-78
2022/12/14 03:48:23;;;;;;;;;;;29.50;52.30;;;;;;5079338;28;19912;-74
2022/12/14 03:50:55;;;;;;;;;;;29.40;52.00;;;;;;5078687;28;20038;-79
2022/12/14 03:53:33;;;;;;;;;;;29.30;54.30;;;;;;5072676;28;19982;-74
2022/12/14 03:56:00;;;;;;;;;;;29.60;54.20;;;;;;5078370;28;19916;-75
2022/12/14 03:58:33;;;;;;;;;;;29.70;53.80;;;;;;5079913;28;19913;-79
2022/12/14 04:01:04;;;;;;;;;;;29.80;53.20;;;;;;5072119;28;19912;-75
2022/12/14 04:03:49;;;;;;;;;;;29.80;51.90;;;;;;5080076;28;19962;-77
2022/12/14 04:06:16;;;;;;;;;;;29.70;51.80;;;;;;5078107;28;20341;-77
2022/12/14 04:08:46;;;;;;;;;;;29.60;52.10;;;;;;5074805;28;20531;-72
2022/12/14 04:20:10;;;;;;;;;;;29.40;52.80;;;;;;5078649;28;19919;-71
2022/12/14 04:22:43;;;;;;;;;;;29.40;53.00;;;;;;5074385;28;19966;-76
2022/12/14 04:28:04;;;;;;;;;;;29.40;52.20;;;;;;5089325;28;20358;-74
2022/12/14 04:30:33;;;;;;;;;;;29.00;52.80;;;;;;5080219;28;19916;-75
2022/12/14 04:33:45;;;;;;;;;;;28.90;52.90;;;;;;5081241;28;19952;-73
2022/12/14 04:35:48;;;;;;;;;;;28.80;52.20;;;;;;5071267;28;19920;-69
2022/12/14 04:38:17;;;;;;;;;;;28.50;52.90;;;;;;5079842;28;20350;-73
2022/12/14 04:40:51;;;;;;;;;;;28.50;52.40;;;;;;5074535;28;19918;-77
2022/12/14 04:43:23;;;;;;;;;;;28.40;53.00;;;;;;5074407;28;20400;-73
2022/12/14 04:45:54;;;;;;;;;;;28.30;52.30;;;;;;5067061;28;19927;-74
2022/12/14 04:48:42;;;;;;;;;;;28.10;52.80;;;;;;5085089;28;19927;-75
2022/12/14 04:51:11;;;;;;;;;;;28.00;55.20;;;;;;5069199;28;19916;-73
2022/12/14 04:53:40;;;;;;;;;;;27.90;54.70;;;;;;5069347;28;19916;-72
2022/12/14 04:56:12;;;;;;;;;;;27.80;54.20;;;;;;5072601;28;19920;-74
2022/12/14 04:58:39;;;;;;;;;;;27.70;54.00;;;;;;5077738;28;20277;-74
2022/12/14 05:01:11;;;;;;;;;;;27.70;53.80;;;;;;5075214;28;19912;-76
2022/12/14 05:03:48;;;;;;;;;;;27.80;53.90;;;;;;5083184;28;20006;-74
2022/12/14 05:06:23;;;;;;;;;;;27.70;54.20;;;;;;5070985;28;19920;-73
2022/12/14 05:08:59;;;;;;;;;;;27.70;55.10;;;;;;5077891;28;19912;-76
2022/12/14 05:11:47;;;;;;;;;;;27.60;53.40;;;;;;5087170;28;20296;-73
2022/12/14 05:14:19;;;;;;;;;;;27.50;55.00;;;;;;5078212;28;20662;-73
2022/12/14 05:16:45;;;;;;;;;;;27.50;55.50;;;;;;5084417;28;19916;-72
2022/12/14 05:19:14;;;;;;;;;;;27.60;55.60;;;;;;5091352;28;19908;-71
2022/12/14 05:21:46;;;;;;;;;;;27.60;55.50;;;;;;5084935;28;19995;-73
2022/12/14 05:24:12;;;;;;;;;;;27.60;55.90;;;;;;5088060;28;20278;-74
2022/12/14 05:26:39;;;;;;;;;;;27.50;54.40;;;;;;5081994;28;19923;-73
2022/12/14 05:29:06;;;;;;;;;;;27.30;55.40;;;;;;5088875;28;19912;-76
2022/12/14 05:31:33;;;;;;;;;;;27.10;54.60;;;;;;5085523;28;19920;-75
2022/12/14 05:34:00;;;;;;;;;;;27.00;55.50;;;;;;5085092;28;19912;-73
2022/12/14 05:36:26;;;;;;;;;;;26.80;55.70;;;;;;5082119;28;19974;-75
2022/12/14 05:38:53;;;;;;;;;;;26.90;55.70;;;;;;5082432;28;20366;-75
2022/12/14 05:41:20;;;;;;;;;;;26.90;55.70;;;;;;5077055;28;19920;-70
2022/12/14 05:43:46;;;;;;;;;;;26.90;56.20;;;;;;5080692;28;19948;-73
2022/12/14 05:46:13;;;;;;;;;;;27.00;55.60;;;;;;5083404;28;19921;-73
2022/12/14 05:48:40;;;;;;;;;;;27.00;55.90;;;;;;5091790;28;19962;-73
2022/12/14 05:51:10;;;;;;;;;;;27.00;55.70;;;;;;5085479;28;20406;-73
2022/12/14 05:53:38;;;;;;;;;;;27.00;56.40;;;;;;5077336;28;19927;-73
2022/12/14 05:56:06;;;;;;;;;;;27.00;55.20;;;;;;5085230;28;19939;-70
2022/12/14 05:58:33;;;;;;;;;;;26.80;55.10;;;;;;5073503;28;19962;-74
2022/12/14 06:01:00;;;;;;;;;;;26.70;55.80;;;;;;5085043;28;19913;-74
2022/12/14 06:03:27;;;;;;;;;;;26.60;56.20;;;;;;5076162;28;20337;-69
2022/12/14 06:05:54;;;;;;;;;;;26.40;56.20;;;;;;5084644;28;19926;-75
2022/12/14 06:08:21;;;;;;;;;;;26.30;55.10;;;;;;5091465;28;19919;-72
2022/12/14 06:10:48;;;;;;;;;;;26.20;55.80;;;;;;5092444;28;19920;-76
2022/12/14 06:13:14;;;;;;;;;;;26.10;55.80;;;;;;5078653;28;20371;-74
2022/12/14 06:15:41;;;;;;;;;;;26.00;56.50;;;;;;5083292;28;19934;-74
2022/12/14 06:18:08;;;;;;;;;;;25.90;56.30;;;;;;5077273;28;19932;-74
2022/12/14 06:20:34;;;;;;;;;;;25.90;57.80;;;;;;5075476;28;19967;-71
2022/12/14 06:23:01;;;;;;;;;;;25.90;56.90;;;;;;5078116;28;19918;-67
2022/12/14 06:25:28;;;;;;;;;;;25.80;55.80;;;;;;5073405;28;20812;-72
2022/12/14 06:27:54;;;;;;;;;;;25.60;56.80;;;;;;5078979;28;19952;-68
2022/12/14 06:30:21;;;;;;;;;;;25.40;55.80;;;;;;5079679;28;19912;-74
2022/12/14 06:32:48;;;;;;;;;;;25.30;56.80;;;;;;5074188;28;20282;-74
2022/12/14 06:35:14;;;;;;;;;;;25.20;57.30;;;;;;5076039;28;19916;-68
2022/12/14 06:37:41;;;;;;;;;;;25.20;58.00;;;;;;5079251;28;20324;-75
2022/12/14 06:40:08;;;;;;;;;;;25.10;57.60;;;;;;5079003;28;19919;-69
2022/12/14 06:42:35;;;;;;;;;;;25.00;57.80;;;;;;5075624;28;19968;-75
2022/12/14 06:45:01;;;;;;;;;;;25.00;58.70;;;;;;5075494;28;19928;-74
2022/12/14 06:47:28;;;;;;;;;;;25.00;58.20;;;;;;5057952;28;19913;-70
2022/12/14 06:49:55;;;;;;;;;;;24.90;58.70;;;;;;5083468;28;19920;-67
2022/12/14 06:52:21;;;;;;;;;;;24.70;59.00;;;;;;5086259;28;19919;-70
2022/12/14 06:54:48;;;;;;;;;;;24.60;59.60;;;;;;5081102;28;19912;-74
2022/12/14 06:57:15;;;;;;;;;;;24.50;59.30;;;;;;5078248;28;20344;-73
2022/12/14 06:59:41;;;;;;;;;;;24.40;59.50;;;;;;5070755;28;20025;-70
2022/12/14 07:02:09;;;;;;;;;;;24.30;59.50;;;;;;5075215;28;20007;-71
2022/12/14 07:04:36;;;;;;;;;;;24.30;59.90;;;;;;5074573;28;20377;-70
2022/12/14 07:07:03;;;;;;;;;;;24.10;59.30;;;;;;5075029;28;20415;-72
2022/12/14 07:09:29;;;;;;;;;;;24.10;59.30;;;;;;5079780;28;20366;-71
2022/12/14 07:11:56;;;;;;;;;;;24.10;59.80;;;;;;5074477;28;20005;-71
2022/12/14 07:14:23;;;;;;;;;;;24.00;59.80;;;;;;5080019;28;19913;-70
2022/12/14 07:16:51;;;;;;;;;;;23.80;59.60;;;;;;5073341;28;19957;-74
2022/12/14 07:19:18;;;;;;;;;;;23.70;59.30;;;;;;5072034;28;19909;-74
2022/12/14 07:21:44;;;;;;;;;;;23.50;60.10;;;;;;5080552;28;20259;-78
2022/12/14 07:24:11;;;;;;;;;;;23.50;59.60;;;;;;5090487;28;19916;-75
2022/12/14 07:26:38;;;;;;;;;;;23.40;59.80;;;;;;5079211;28;19916;-78
2022/12/14 07:29:05;;;;;;;;;;;23.30;59.70;;;;;;5080983;28;19916;-77
2022/12/14 07:31:32;;;;;;;;;;;23.20;59.10;;;;;;5074577;28;19923;-77
2022/12/14 07:33:59;;;;;;;;;;;23.10;59.60;;;;;;5072210;28;19913;-78
2022/12/14 07:36:26;;;;;;;;;;;23.00;60.30;;;;;;5086306;28;19915;-77
2022/12/14 07:38:54;;;;;;;;;;;23.00;60.20;;;;;;5083462;28;19924;-76
2022/12/14 07:41:22;;;;;;;;;;;22.90;60.10;;;;;;5086293;28;19912;-75
2022/12/14 07:43:49;;;;;;;;;;;22.70;60.40;;;;;;5077507;28;20004;-77
2022/12/14 07:46:17;;;;;;;;;;;22.50;60.70;;;;;;5081950;28;19930;-77
2022/12/14 07:48:45;;;;;;;;;;;22.20;60.60;;;;;;5087295;28;19913;-78
2022/12/14 07:51:12;;;;;;;;;;;22.10;60.80;;;;;;5088960;28;19916;-79
2022/12/14 07:53:39;;;;;;;;;;;22.00;61.30;;;;;;5092024;28;20712;-77
2022/12/14 07:56:07;;;;;;;;;;;21.90;61.60;;;;;;5086768;28;20355;-78
2022/12/14 07:58:35;;;;;;;;;;;21.80;61.50;;;;;;5074629;28;19922;-78
2022/12/14 08:01:13;;;;;;;;;;;21.80;61.80;;;;;;5085785;28;19912;-77
2022/12/14 08:03:41;;;;;;;;;;;21.80;61.90;;;;;;5084163;28;19916;-76
2022/12/14 08:06:08;;;;;;;;;;;21.80;61.80;;;;;;5081458;28;19931;-76
2022/12/14 08:08:35;;;;;;;;;;;21.80;61.40;;;;;;5089307;28;19912;-78
2022/12/14 08:11:02;;;;;;;;;;;21.70;61.60;;;;;;5083758;28;19939;-78
2022/12/14 08:13:28;;;;;;;;;;;21.60;61.90;;;;;;5067998;28;20374;-75
2022/12/14 08:15:55;;;;;;;;;;;21.50;62.00;;;;;;5084894;28;19942;-76
2022/12/14 08:18:22;;;;;;;;;;;21.50;61.70;;;;;;5082389;28;19912;-78
2022/12/14 08:20:50;;;;;;;;;;;21.30;62.00;;;;;;5083799;28;19912;-76
2022/12/14 08:23:18;;;;;;;;;;;21.20;62.50;;;;;;5075187;28;20010;-77
2022/12/14 08:25:51;;;;;;;;;;;21.10;61.80;;;;;;5078664;28;19924;-78
2022/12/14 08:28:17;;;;;;;;;;;21.00;62.20;;;;;;5084972;28;20007;-76
2022/12/14 08:30:44;;;;;;;;;;;20.80;62.10;;;;;;5081667;28;19912;-76
2022/12/14 08:33:11;;;;;;;;;;;20.80;62.40;;;;;;5083777;28;20281;-75
2022/12/14 08:35:37;;;;;;;;;;;20.70;62.20;;;;;;5072497;28;19920;-75
2022/12/14 08:38:04;;;;;;;;;;;20.60;62.30;;;;;;5080618;28;19912;-75
2022/12/14 08:40:34;;;;;;;;;;;20.50;62.50;;;;;;5080837;28;20384;-77
2022/12/14 08:43:00;;;;;;;;;;;20.40;62.40;;;;;;5089080;28;19920;-77
2022/12/14 08:45:27;;;;;;;;;;;20.30;62.50;;;;;;5084905;28;19928;-77
2022/12/14 08:47:56;;;;;;;;;;;20.20;62.60;;;;;;5090000;28;19909;-76
2022/12/14 08:50:24;;;;;;;;;;;20.20;62.80;;;;;;5087188;28;19928;-76
2022/12/14 08:52:50;;;;;;;;;;;20.10;63.00;;;;;;5086781;28;20439;-76
2022/12/14 08:55:20;;;;;;;;;;;20.00;63.40;;;;;;5080777;28;19921;-78
2022/12/14 08:57:47;;;;;;;;;;;20.00;63.60;;;;;;5071077;28;20354;-76
2022/12/14 09:00:13;;;;;;;;;;;19.90;63.80;;;;;;5075192;28;20400;-77
2022/12/14 09:02:40;;;;;;;;;;;19.80;64.00;;;;;;5080674;28;19912;-76
2022/12/14 09:05:08;;;;;;;;;;;19.70;64.10;;;;;;5079960;28;19970;-76
2022/12/14 09:07:35;;;;;;;;;;;19.60;64.30;;;;;;5091870;28;19915;-77
2022/12/14 09:10:01;;;;;;;;;;;19.60;64.50;;;;;;5084247;28;20378;-78
2022/12/14 09:12:28;;;;;;;;;;;19.50;64.80;;;;;;5085466;28;19923;-78
2022/12/14 09:14:55;;;;;;;;;;;19.40;64.70;;;;;;5088017;28;19974;-77
2022/12/14 09:17:21;;;;;;;;;;;19.40;64.60;;;;;;5079394;28;19919;-77
2022/12/14 09:19:48;;;;;;;;;;;19.30;65.70;;;;;;5087099;28;19922;-77
2022/12/14 09:22:15;;;;;;;;;;;19.30;65.10;;;;;;5078422;28;19912;-77
2022/12/14 09:24:41;;;;;;;;;;;19.20;65.40;;;;;;5074161;28;19924;-77
2022/12/14 09:27:08;;;;;;;;;;;19.20;65.40;;;;;;5083223;28;19916;-77
2022/12/14 09:29:35;;;;;;;;;;;19.20;65.70;;;;;;5077493;28;19912;-77
2022/12/14 09:32:02;;;;;;;;;;;19.10;66.00;;;;;;5090558;28;19912;-76
2022/12/14 09:34:28;;;;;;;;;;;19.00;66.10;;;;;;5090936;28;19919;-77
2022/12/14 09:36:55;;;;;;;;;;;18.90;66.40;;;;;;5087722;28;20380;-77
2022/12/14 09:39:22;;;;;;;;;;;18.90;66.70;;;;;;5091037;28;19928;-76
2022/12/14 09:41:52;;;;;;;;;;;18.80;66.70;;;;;;5081266;28;19912;-76
2022/12/14 09:44:36;;;;;;;;;;;18.80;67.00;;;;;;5089258;28;19916;-77
2022/12/14 09:47:05;;;;;;;;;;;18.70;67.30;;;;;;5085034;28;19916;-77
2022/12/14 09:50:01;;;;;;;;;;;18.60;67.30;;;;;;5089567;28;20003;-77
2022/12/14 09:52:37;;;;;;;;;;;18.50;67.60;;;;;;5075238;28;19916;-77
2022/12/14 09:55:35;;;;;;;;;;;18.50;67.50;;;;;;5082967;28;19919;-76
2022/12/14 09:58:08;;;;;;;;;;;18.40;67.80;;;;;;5069089;28;19919;-77
2022/12/14 10:00:39;;;;;;;;;;;18.40;68.10;;;;;;5078697;28;19976;-76
2022/12/14 10:03:13;;;;;;;;;;;18.40;68.10;;;;;;5079157;28;19916;-77
2022/12/14 10:05:58;;;;;;;;;;;18.40;68.20;;;;;;5086136;28;19924;-76
2022/12/14 10:08:27;;;;;;;;;;;18.30;68.40;;;;;;5077869;28;19955;-76
2022/12/14 10:11:11;;;;;;;;;;;18.30;68.50;;;;;;5095646;28;19913;-76
2022/12/14 10:13:44;;;;;;;;;;;18.20;68.60;;;;;;5073713;28;19916;-77
2022/12/14 10:16:19;;;;;;;;;;;18.20;68.90;;;;;;5078366;28;19948;-77
2022/12/14 10:18:54;;;;;;;;;;;18.10;69.20;;;;;;5093455;28;19908;-77
2022/12/14 10:21:23;;;;;;;;;;;18.00;69.40;;;;;;5083808;28;20404;-78
2022/12/14 10:23:57;;;;;;;;;;;18.00;69.60;;;;;;5074434;28;19912;-75
2022/12/14 10:26:29;;;;;;;;;;;17.90;69.90;;;;;;5083537;28;19927;-77
2022/12/14 10:29:02;;;;;;;;;;;17.80;70.20;;;;;;5091391;28;20304;-76
2022/12/14 10:31:55;;;;;;;;;;;17.60;70.70;;;;;;5084126;28;19928;-78
2022/12/14 10:34:23;;;;;;;;;;;17.60;71.10;;;;;;5055597;28;19913;-77
2022/12/14 10:37:05;;;;;;;;;;;17.50;71.40;;;;;;5088852;28;20031;-77
2022/12/14 10:39:42;;;;;;;;;;;17.50;71.30;;;;;;5086265;28;19912;-73
2022/12/14 10:42:11;;;;;;;;;;;17.40;71.20;;;;;;5076590;28;19982;-78
2022/12/14 10:44:38;;;;;;;;;;;17.40;71.00;;;;;;5078532;28;19927;-76
2022/12/14 10:47:18;;;;;;;;;;;17.40;71.10;;;;;;5077771;28;20396;-78
2022/12/14 10:49:48;;;;;;;;;;;17.40;71.30;;;;;;5076752;28;19912;-76
2022/12/14 10:52:19;;;;;;;;;;;17.40;71.10;;;;;;5077732;28;19916;-76
2022/12/14 10:54:53;;;;;;;;;;;17.40;71.10;;;;;;5081852;28;20330;-76
2022/12/14 10:57:21;;;;;;;;;;;17.40;71.10;;;;;;5078716;28;20497;-73
2022/12/14 10:59:49;;;;;;;;;;;17.40;71.20;;;;;;5107537;27;19915;-76
2022/12/14 11:02:17;;;;;;;;;;;17.40;71.30;;;;;;5091794;28;19919;-69
2022/12/14 11:04:47;;;;;;;;;;;17.30;71.40;;;;;;5087076;28;19924;-77
2022/12/14 11:07:15;;;;;;;;;;;17.30;72.20;;;;;;5076274;28;20011;-76
2022/12/14 11:09:42;;;;;;;;;;;17.20;72.50;;;;;;5083191;28;19919;-77
2022/12/14 11:12:16;;;;;;;;;;;17.10;72.60;;;;;;5086600;28;20007;-78
2022/12/14 11:14:53;;;;;;;;;;;17.00;73.00;;;;;;5093760;28;19919;-78
2022/12/14 11:17:31;;;;;;;;;;;16.90;72.90;;;;;;5092171;28;19920;-76
2022/12/14 11:20:04;;;;;;;;;;;16.80;73.40;;;;;;5076980;28;20005;-77
2022/12/14 11:22:41;;;;;;;;;;;16.80;73.80;;;;;;5079342;28;20362;-76
2022/12/14 11:25:26;;;;;;;;;;;16.70;73.60;;;;;;5083109;28;19916;-75
2022/12/14 11:27:53;;;;;;;;;;;16.60;73.90;;;;;;5088004;28;19919;-77
2022/12/14 11:30:19;;;;;;;;;;;16.60;74.20;;;;;;5087096;28;19966;-77
2022/12/14 11:32:47;;;;;;;;;;;16.50;74.30;;;;;;5072741;28;19908;-77
2022/12/14 11:35:18;;;;;;;;;;;16.50;74.90;;;;;;5072170;28;19957;-77
2022/12/14 11:37:45;;;;;;;;;;;16.40;75.30;;;;;;5086110;28;19942;-75
2022/12/14 11:40:24;;;;;;;;;;;16.40;75.00;;;;;;5075196;28;20362;-75
2022/12/14 11:42:55;;;;;;;;;;;16.40;74.80;;;;;;5088017;28;20010;-74
2022/12/14 11:45:24;;;;;;;;;;;16.40;75.00;;;;;;5090045;28;20344;-77
2022/12/14 11:48:16;;;;;;;;;;;16.30;75.00;;;;;;5091074;28;19912;-73
2022/12/14 11:50:44;;;;;;;;;;;16.30;75.00;;;;;;5082432;28;19944;-77
2022/12/14 11:53:13;;;;;;;;;;;16.20;75.20;;;;;;5080421;28;19912;-69
2022/12/14 11:55:43;;;;;;;;;;;16.20;75.30;;;;;;5079576;28;20324;-76
2022/12/14 11:58:30;;;;;;;;;;;16.20;75.40;;;;;;5072539;28;19915;-75
2022/12/14 12:00:58;;;;;;;;;;;16.20;75.40;;;;;;5085523;28;19920;-77
2022/12/14 12:03:51;;;;;;;;;;;16.20;75.70;;;;;;5090936;28;19912;-73
2022/12/14 12:06:22;;;;;;;;;;;16.10;75.60;;;;;;5085914;28;19928;-72
2022/12/14 12:08:54;;;;;;;;;;;16.20;75.60;;;;;;5091154;28;19971;-76
2022/12/14 12:11:23;;;;;;;;;;;16.20;75.50;;;;;;5081424;28;19938;-77
2022/12/14 12:13:51;;;;;;;;;;;16.20;75.60;;;;;;5076723;28;20006;-76
2022/12/14 12:16:20;;;;;;;;;;;16.20;75.60;;;;;;5083502;28;20289;-76
2022/12/14 12:18:48;;;;;;;;;;;16.20;75.50;;;;;;5084810;28;19928;-76
2022/12/14 12:21:35;;;;;;;;;;;16.20;75.50;;;;;;5077487;28;19916;-76
2022/12/14 12:24:20;;;;;;;;;;;16.20;75.70;;;;;;5079653;28;19912;-76
2022/12/14 12:26:57;;;;;;;;;;;16.20;76.00;;;;;;5076426;28;19925;-76
2022/12/14 12:29:24;;;;;;;;;;;16.20;76.20;;;;;;5072794;28;19961;-74
2022/12/14 12:31:57;;;;;;;;;;;16.10;76.20;;;;;;5078126;28;20390;-77
2022/12/14 12:34:44;;;;;;;;;;;16.10;76.30;;;;;;5072719;28;19916;-76
2022/12/14 12:37:18;;;;;;;;;;;16.10;76.50;;;;;;5069774;28;19924;-73
2022/12/14 12:39:47;;;;;;;;;;;16.10;76.40;;;;;;5077198;28;19916;-75
2022/12/14 12:42:37;;;;;;;;;;;16.10;76.50;;;;;;5076414;28;19912;-73
2022/12/14 12:45:19;;;;;;;;;;;16.00;76.80;;;;;;5069266;28;20370;-75
2022/12/14 12:48:14;;;;;;;;;;;16.00;76.80;;;;;;5077054;28;19998;-71
2022/12/14 12:50:47;;;;;;;;;;;15.90;77.00;;;;;;5037645;28;20015;-76
2022/12/14 12:53:16;;;;;;;;;;;15.90;77.30;;;;;;5090518;28;19920;-74
2022/12/14 12:55:46;;;;;;;;;;;15.80;77.30;;;;;;5088796;28;19912;-74
2022/12/14 12:58:18;;;;;;;;;;;15.70;77.30;;;;;;5093293;28;19919;-76
2022/12/14 13:00:47;;;;;;;;;;;15.60;77.70;;;;;;5088182;28;19999;-74
2022/12/14 13:03:20;;;;;;;;;;;15.60;78.50;;;;;;5080160;28;19944;-75
2022/12/14 13:05:47;;;;;;;;;;;15.50;79.00;;;;;;5086944;28;20308;-77
2022/12/14 13:08:18;;;;;;;;;;;15.40;79.50;;;;;;5077818;28;19923;-77
2022/12/14 13:10:46;;;;;;;;;;;15.40;79.70;;;;;;5093256;28;19923;-75
2022/12/14 13:13:15;;;;;;;;;;;15.30;79.10;;;;;;5088552;28;19917;-77
2022/12/14 13:15:44;;;;;;;;;;;15.30;79.80;;;;;;5091649;28;19916;-76
2022/12/14 13:18:25;;;;;;;;;;;15.20;81.20;;;;;;5076230;28;19987;-75
2022/12/14 13:20:53;;;;;;;;;;;15.10;81.10;;;;;;5089321;28;19961;-77
2022/12/14 13:23:24;;;;;;;;;;;15.00;82.00;;;;;;5074812;28;19920;-74
2022/12/14 13:26:16;;;;;;;;;;;14.90;82.30;;;;;;5079127;28;19927;-77
2022/12/14 13:29:01;;;;;;;;;;;14.80;82.50;;;;;;5077354;28;19913;-74
2022/12/14 13:31:45;;;;;;;;;;;14.80;82.80;;;;;;5088194;28;19994;-75
2022/12/14 13:34:25;;;;;;;;;;;14.70;83.90;;;;;;5092143;28;19997;-70
2022/12/14 13:37:00;;;;;;;;;;;14.70;83.30;;;;;;5087953;28;19928;-72
2022/12/14 13:39:30;;;;;;;;;;;14.70;83.80;;;;;;5087536;28;19926;-76
2022/12/14 13:41:57;;;;;;;;;;;14.70;84.00;;;;;;5075711;28;19917;-73
2022/12/14 13:44:23;;;;;;;;;;;14.70;84.00;;;;;;5086762;28;20370;-74
2022/12/14 13:47:00;;;;;;;;;;;14.60;84.10;;;;;;5084466;28;20366;-76
2022/12/14 13:49:27;;;;;;;;;;;14.60;84.10;;;;;;5086311;28;19981;-74
2022/12/14 13:51:54;;;;;;;;;;;14.50;85.20;;;;;;5085027;28;20540;-75
2022/12/14 13:54:32;;;;;;;;;;;14.50;84.90;;;;;;5112956;28;19943;-69
2022/12/14 13:57:06;;;;;;;;;;;14.50;84.80;;;;;;5073258;28;19985;-75
2022/12/14 13:59:44;;;;;;;;;;;14.40;84.80;;;;;;5072110;28;19915;-76
2022/12/14 14:02:29;;;;;;;;;;;14.40;84.30;;;;;;5083260;28;20019;-77
2022/12/14 14:05:14;;;;;;;;;;;14.40;84.00;;;;;;5092511;28;20396;-75
2022/12/14 14:07:52;;;;;;;;;;;14.40;84.10;;;;;;5073053;28;20014;-75
2022/12/14 14:10:35;;;;;;;;;;;14.40;84.00;;;;;;5087355;28;20011;-73
2022/12/14 14:13:21;;;;;;;;;;;14.40;84.00;;;;;;5082648;28;19919;-76
2022/12/14 14:15:53;;;;;;;;;;;14.50;82.90;;;;;;5076007;28;19994;-77
2022/12/14 14:18:22;;;;;;;;;;;14.60;83.00;;;;;;5092028;28;19917;-78
2022/12/14 14:20:51;;;;;;;;;;;14.50;83.00;;;;;;5084562;28;19973;-75
2022/12/14 14:23:17;;;;;;;;;;;14.50;83.50;;;;;;5087996;28;19927;-76
2022/12/14 14:25:44;;;;;;;;;;;14.40;83.70;;;;;;5077310;28;19920;-75
2022/12/14 14:28:12;;;;;;;;;;;14.40;84.80;;;;;;5073359;28;19912;-75
2022/12/14 14:30:43;;;;;;;;;;;14.30;84.80;;;;;;5074779;28;19916;-77
2022/12/14 14:33:43;;;;;;;;;;;14.20;85.00;;;;;;5090683;28;20326;-77
2022/12/14 14:36:16;;;;;;;;;;;14.20;84.90;;;;;;4919767;28;3583814;-74
2022/12/14 14:38:43;;;;;;;;;;;14.00;86.80;;;;;;5082010;28;19912;-77
2022/12/14 14:41:12;;;;;;;;;;;14.00;87.50;;;;;;5072622;28;19923;-78
2022/12/14 14:43:41;;;;;;;;;;;13.90;89.10;;;;;;5083346;28;20005;-77
2022/12/14 14:46:09;;;;;;;;;;;13.80;89.50;;;;;;5090050;28;19920;-73
2022/12/14 14:48:35;;;;;;;;;;;13.80;89.10;;;;;;5093955;28;19908;-77